createdAt,value
2017-11-07T00:00:22.862Z,2.33
2017-11-07T00:01:22.829Z,2.39
2017-11-07T00:02:22.806Z,2.43
2017-11-07T00:03:22.785Z,2.42
2017-11-07T00:04:22.758Z,2.42
2017-11-07T00:05:22.734Z,2.49
2017-11-07T00:06:22.708Z,2.42
2017-11-07T00:07:22.684Z,2.39
2017-11-07T00:08:22.657Z,2.42
2017-11-07T00:09:22.645Z,2.47
2017-11-07T00:10:22.605Z,2.50
2017-11-07T00:11:22.620Z,2.42
2017-11-07T00:12:22.568Z,2.53
2017-11-07T00:13:22.549Z,2.50
2017-11-07T00:14:22.523Z,2.53
2017-11-07T00:15:22.495Z,2.60
2017-11-07T00:16:22.472Z,2.61
2017-11-07T00:17:22.449Z,2.54
2017-11-07T00:18:22.428Z,2.64
2017-11-07T00:19:22.398Z,2.57
2017-11-07T00:20:22.370Z,2.60
2017-11-07T00:21:22.347Z,2.64
2017-11-07T00:22:22.322Z,2.62
2017-11-07T00:23:22.292Z,2.62
2017-11-07T00:24:22.276Z,2.64
2017-11-07T00:25:22.268Z,2.64
2017-11-07T00:26:22.242Z,2.62
2017-11-07T00:27:22.197Z,2.61
2017-11-07T00:28:22.184Z,2.68
2017-11-07T00:29:24.666Z,2.53
2017-11-07T00:30:22.128Z,2.54
2017-11-07T00:31:22.114Z,2.60
2017-11-07T00:32:22.085Z,2.50
2017-11-07T00:33:22.056Z,2.56
2017-11-07T00:34:22.047Z,2.61
2017-11-07T00:35:22.011Z,2.62
2017-11-07T00:36:21.985Z,2.68
2017-11-07T00:37:21.961Z,2.72
2017-11-07T00:38:21.952Z,2.68
2017-11-07T00:39:21.930Z,2.74
2017-11-07T00:40:22.653Z,2.72
2017-11-07T00:41:21.867Z,2.80
2017-11-07T00:42:21.852Z,2.79
2017-11-07T00:43:21.820Z,2.92
2017-11-07T00:44:21.796Z,2.97
2017-11-07T00:45:21.767Z,2.93
2017-11-07T00:46:21.757Z,2.97
2017-11-07T00:47:21.725Z,2.98
2017-11-07T00:48:21.694Z,2.90
2017-11-07T00:49:21.680Z,2.90
2017-11-07T00:50:21.652Z,2.93
2017-11-07T00:51:21.619Z,2.90
2017-11-07T00:52:21.602Z,3.01
2017-11-07T00:53:21.572Z,3.07
2017-11-07T00:54:21.547Z,3.03
2017-11-07T00:55:21.534Z,3.10
2017-11-07T00:56:21.508Z,3.01
2017-11-07T00:57:21.488Z,3.03
2017-11-07T00:58:21.456Z,3.04
2017-11-07T00:59:21.438Z,3.04
2017-11-07T01:00:21.406Z,3.07
2017-11-07T01:01:21.419Z,3.05
2017-11-07T01:02:21.360Z,3.11
2017-11-07T01:03:21.337Z,3.11
2017-11-07T01:04:21.334Z,3.03
2017-11-07T01:05:21.283Z,3.08
2017-11-07T01:06:21.276Z,3.21
2017-11-07T01:07:21.241Z,3.19
2017-11-07T01:08:21.226Z,3.03
2017-11-07T01:09:21.195Z,3.03
2017-11-07T01:10:21.162Z,3.13
2017-11-07T01:11:21.148Z,3.08
2017-11-07T01:12:21.124Z,3.21
2017-11-07T01:13:21.091Z,3.18
2017-11-07T01:14:21.079Z,3.19
2017-11-07T01:15:21.051Z,3.16
2017-11-07T01:16:21.032Z,3.14
2017-11-07T01:17:21.022Z,3.16
2017-11-07T01:18:20.978Z,3.16
2017-11-07T01:19:20.956Z,3.26
2017-11-07T01:20:20.931Z,3.26
2017-11-07T01:21:20.906Z,3.16
2017-11-07T01:22:20.875Z,3.16
2017-11-07T01:23:20.857Z,3.21
2017-11-07T01:24:20.837Z,3.26
2017-11-07T01:25:20.807Z,3.22
2017-11-07T01:26:20.794Z,3.21
2017-11-07T01:27:20.756Z,3.25
2017-11-07T01:28:20.762Z,3.18
2017-11-07T01:29:20.720Z,3.22
2017-11-07T01:30:20.694Z,3.19
2017-11-07T01:31:20.662Z,3.26
2017-11-07T01:32:20.644Z,3.18
2017-11-07T01:33:20.615Z,3.34
2017-11-07T01:34:20.607Z,3.36
2017-11-07T01:35:20.575Z,3.29
2017-11-07T01:36:20.554Z,3.31
2017-11-07T01:37:20.520Z,3.34
2017-11-07T01:38:20.511Z,3.32
2017-11-07T01:39:20.477Z,3.40
2017-11-07T01:40:20.450Z,3.28
2017-11-07T01:41:20.437Z,3.41
2017-11-07T01:42:20.430Z,3.40
2017-11-07T01:43:20.375Z,3.37
2017-11-07T01:44:20.360Z,3.36
2017-11-07T01:45:20.349Z,3.34
2017-11-07T01:46:20.327Z,3.40
2017-11-07T01:47:20.290Z,3.29
2017-11-07T01:48:20.256Z,3.41
2017-11-07T01:49:20.257Z,3.32
2017-11-07T01:50:20.219Z,3.42
2017-11-07T01:51:20.188Z,3.44
2017-11-07T01:52:20.185Z,3.55
2017-11-07T01:53:20.138Z,3.44
2017-11-07T01:54:20.120Z,3.48
2017-11-07T01:55:20.095Z,3.47
2017-11-07T01:56:20.068Z,3.47
2017-11-07T01:57:20.043Z,3.42
2017-11-07T01:58:20.019Z,3.22
2017-11-07T01:59:20.009Z,3.26
2017-11-07T02:00:19.977Z,3.21
2017-11-07T02:01:19.959Z,3.21
2017-11-07T02:02:19.929Z,3.19
2017-11-07T02:03:19.907Z,3.29
2017-11-07T02:04:19.888Z,3.26
2017-11-07T02:05:19.861Z,3.31
2017-11-07T02:06:19.829Z,3.29
2017-11-07T02:07:19.811Z,3.34
2017-11-07T02:08:19.780Z,3.36
2017-11-07T02:09:19.776Z,3.40
2017-11-07T02:10:19.740Z,3.37
2017-11-07T02:11:19.710Z,3.45
2017-11-07T02:12:19.693Z,3.55
2017-11-07T02:13:19.663Z,3.51
2017-11-07T02:14:19.663Z,3.55
2017-11-07T02:15:19.623Z,3.60
2017-11-07T02:16:19.604Z,3.55
2017-11-07T02:17:19.593Z,3.45
2017-11-07T02:18:19.550Z,3.55
2017-11-07T02:19:19.533Z,3.55
2017-11-07T02:20:19.498Z,3.53
2017-11-07T02:21:19.480Z,3.55
2017-11-07T02:22:19.466Z,3.50
2017-11-07T02:23:19.431Z,3.51
2017-11-07T02:24:19.418Z,3.53
2017-11-07T02:25:19.381Z,3.50
2017-11-07T02:26:19.359Z,3.50
2017-11-07T02:27:19.335Z,3.51
2017-11-07T02:28:19.317Z,3.58
2017-11-07T02:29:19.287Z,3.55
2017-11-07T02:30:19.261Z,3.51
2017-11-07T02:31:19.243Z,3.55
2017-11-07T02:32:19.225Z,3.45
2017-11-07T02:33:19.204Z,3.45
2017-11-07T02:34:19.172Z,3.36
2017-11-07T02:35:19.141Z,3.31
2017-11-07T02:36:19.122Z,3.16
2017-11-07T02:37:19.100Z,3.21
2017-11-07T02:38:19.089Z,3.19
2017-11-07T02:39:19.052Z,3.07
2017-11-07T02:40:19.022Z,2.93
2017-11-07T02:41:19.006Z,2.95
2017-11-07T02:42:18.980Z,2.86
2017-11-07T02:43:18.946Z,2.79
2017-11-07T02:44:18.949Z,2.89
2017-11-07T02:45:18.908Z,2.83
2017-11-07T02:46:18.886Z,2.85
2017-11-07T02:47:18.856Z,2.72
2017-11-07T02:48:18.842Z,2.83
2017-11-07T02:49:18.810Z,2.64
2017-11-07T02:50:18.786Z,2.64
2017-11-07T02:51:18.779Z,2.69
2017-11-07T02:52:18.741Z,2.67
2017-11-07T02:53:18.715Z,2.67
2017-11-07T02:54:18.698Z,2.69
2017-11-07T02:55:18.670Z,2.64
2017-11-07T02:56:18.663Z,2.64
2017-11-07T02:57:18.617Z,2.64
2017-11-07T02:58:18.592Z,2.65
2017-11-07T02:59:18.588Z,2.69
2017-11-07T03:00:18.543Z,2.80
2017-11-07T03:01:18.528Z,2.80
2017-11-07T03:02:18.508Z,2.69
2017-11-07T03:03:18.480Z,2.80
2017-11-07T03:04:18.460Z,2.77
2017-11-07T03:05:18.425Z,2.69
2017-11-07T03:06:18.405Z,2.72
2017-11-07T03:07:18.385Z,2.75
2017-11-07T03:08:18.370Z,2.69
2017-11-07T03:09:18.345Z,2.71
2017-11-07T03:10:18.312Z,2.60
2017-11-07T03:11:18.293Z,2.74
2017-11-07T03:12:18.264Z,2.69
2017-11-07T03:13:18.235Z,2.75
2017-11-07T03:14:18.235Z,2.69
2017-11-07T03:15:18.199Z,2.68
2017-11-07T03:16:18.176Z,2.86
2017-11-07T03:17:18.142Z,2.90
2017-11-07T03:18:18.122Z,2.90
2017-11-07T03:19:18.104Z,3.00
2017-11-07T03:20:18.076Z,3.08
2017-11-07T03:21:18.058Z,3.08
2017-11-07T03:22:18.033Z,3.11
2017-11-07T03:23:18.000Z,3.16
2017-11-07T03:24:17.991Z,3.05
2017-11-07T03:25:17.976Z,3.21
2017-11-07T03:26:17.936Z,3.16
2017-11-07T03:27:17.902Z,3.25
2017-11-07T03:28:17.892Z,3.25
2017-11-07T03:29:17.859Z,3.29
2017-11-07T03:30:17.848Z,3.37
2017-11-07T03:31:17.830Z,3.47
2017-11-07T03:32:17.795Z,3.36
2017-11-07T03:33:17.756Z,3.44
2017-11-07T03:34:17.746Z,3.44
2017-11-07T03:35:17.708Z,3.56
2017-11-07T03:36:17.683Z,3.48
2017-11-07T03:37:17.657Z,3.55
2017-11-07T03:38:17.660Z,3.50
2017-11-07T03:39:17.628Z,3.56
2017-11-07T03:40:17.592Z,3.53
2017-11-07T03:41:17.574Z,3.55
2017-11-07T03:42:17.542Z,3.53
2017-11-07T03:43:17.513Z,3.50
2017-11-07T03:44:17.497Z,3.56
2017-11-07T03:45:17.483Z,3.65
2017-11-07T03:46:17.450Z,3.69
2017-11-07T03:47:17.430Z,3.63
2017-11-07T03:48:17.414Z,3.60
2017-11-07T03:49:17.376Z,3.74
2017-11-07T03:50:17.352Z,3.78
2017-11-07T03:51:17.331Z,3.76
2017-11-07T03:52:17.302Z,3.77
2017-11-07T03:53:17.273Z,3.81
2017-11-07T03:54:17.262Z,3.77
2017-11-07T03:55:17.257Z,3.88
2017-11-07T03:56:17.216Z,3.77
2017-11-07T03:57:17.202Z,3.86
2017-11-07T03:58:17.178Z,3.88
2017-11-07T03:59:17.140Z,3.91
2017-11-07T04:00:17.119Z,3.87
2017-11-07T04:01:17.096Z,3.96
2017-11-07T04:02:17.065Z,3.98
2017-11-07T04:03:17.065Z,3.95
2017-11-07T04:04:17.019Z,3.95
2017-11-07T04:05:17.014Z,3.96
2017-11-07T04:06:16.976Z,4.08
2017-11-07T04:07:16.948Z,4.04
2017-11-07T04:08:16.939Z,4.04
2017-11-07T04:09:16.903Z,4.05
2017-11-07T04:10:16.879Z,4.05
2017-11-07T04:11:16.863Z,4.05
2017-11-07T04:12:16.837Z,4.16
2017-11-07T04:13:16.807Z,4.14
2017-11-07T04:14:16.797Z,4.17
2017-11-07T04:15:16.761Z,4.12
2017-11-07T04:16:16.737Z,4.17
2017-11-07T04:17:16.736Z,4.17
2017-11-07T04:18:16.691Z,4.14
2017-11-07T04:19:16.671Z,4.17
2017-11-07T04:20:16.640Z,4.13
2017-11-07T04:21:16.624Z,4.20
2017-11-07T04:22:16.592Z,4.13
2017-11-07T04:23:16.571Z,4.20
2017-11-07T04:24:16.540Z,4.22
2017-11-07T04:25:16.539Z,4.23
2017-11-07T04:26:16.505Z,4.23
2017-11-07T04:27:16.483Z,4.22
2017-11-07T04:28:16.454Z,4.19
2017-11-07T04:29:16.430Z,4.28
2017-11-07T04:30:16.403Z,4.30
2017-11-07T04:31:16.382Z,4.34
2017-11-07T04:32:16.384Z,4.35
2017-11-07T04:33:16.336Z,4.37
2017-11-07T04:34:16.308Z,4.32
2017-11-07T04:35:16.300Z,4.31
2017-11-07T04:36:16.259Z,4.41
2017-11-07T04:37:16.239Z,4.31
2017-11-07T04:38:16.224Z,4.32
2017-11-07T04:39:16.205Z,4.34
2017-11-07T04:40:16.166Z,4.48
2017-11-07T04:41:16.152Z,4.49
2017-11-07T04:42:16.139Z,4.49
2017-11-07T04:43:16.093Z,4.48
2017-11-07T04:44:16.090Z,4.44
2017-11-07T04:45:16.068Z,4.52
2017-11-07T04:46:16.028Z,4.49
2017-11-07T04:47:16.009Z,4.48
2017-11-07T04:48:15.979Z,4.48
2017-11-07T04:49:15.970Z,4.49
2017-11-07T04:50:15.939Z,4.55
2017-11-07T04:51:15.911Z,4.53
2017-11-07T04:52:15.887Z,4.62
2017-11-07T04:53:15.865Z,4.66
2017-11-07T04:54:15.846Z,4.55
2017-11-07T04:55:15.826Z,4.59
2017-11-07T04:56:15.791Z,4.66
2017-11-07T04:57:15.771Z,4.59
2017-11-07T04:58:15.748Z,4.62
2017-11-07T04:59:15.743Z,4.66
2017-11-07T05:00:15.707Z,4.67
2017-11-07T05:01:15.679Z,4.68
2017-11-07T05:02:15.653Z,4.70
2017-11-07T05:03:15.639Z,4.78
2017-11-07T05:04:15.615Z,4.74
2017-11-07T05:05:15.584Z,4.78
2017-11-07T05:06:15.574Z,4.92
2017-11-07T05:07:15.546Z,4.80
2017-11-07T05:08:15.522Z,4.92
2017-11-07T05:09:15.494Z,4.90
2017-11-07T05:10:15.469Z,4.89
2017-11-07T05:11:15.453Z,4.96
2017-11-07T05:12:15.428Z,4.92
2017-11-07T05:13:15.397Z,4.92
2017-11-07T05:14:15.376Z,4.96
2017-11-07T05:15:15.354Z,4.94
2017-11-07T05:16:15.360Z,4.96
2017-11-07T05:17:15.306Z,4.94
2017-11-07T05:18:15.291Z,4.96
2017-11-07T05:19:15.261Z,4.97
2017-11-07T05:20:15.278Z,5.04
2017-11-07T05:21:15.218Z,5.02
2017-11-07T05:22:15.195Z,4.94
2017-11-07T05:23:15.161Z,4.96
2017-11-07T05:24:15.148Z,5.07
2017-11-07T05:25:15.119Z,4.97
2017-11-07T05:26:15.111Z,4.94
2017-11-07T05:27:15.076Z,4.94
2017-11-07T05:28:15.055Z,4.97
2017-11-07T05:29:15.034Z,4.96
2017-11-07T05:30:15.024Z,5.04
2017-11-07T05:31:15.000Z,5.02
2017-11-07T05:32:14.958Z,5.08
2017-11-07T05:33:14.944Z,5.07
2017-11-07T05:34:14.909Z,5.05
2017-11-07T05:35:14.890Z,5.12
2017-11-07T05:36:14.895Z,5.05
2017-11-07T05:37:14.858Z,4.96
2017-11-07T05:38:14.821Z,4.99
2017-11-07T05:39:14.796Z,5.04
2017-11-07T05:40:14.773Z,4.94
2017-11-07T05:41:14.753Z,4.94
2017-11-07T05:42:14.734Z,4.99
2017-11-07T05:43:14.718Z,4.97
2017-11-07T05:44:14.678Z,5.00
2017-11-07T05:45:14.686Z,4.96
2017-11-07T05:46:14.642Z,4.94
2017-11-07T05:47:14.616Z,4.97
2017-11-07T05:48:14.595Z,4.99
2017-11-07T05:49:14.562Z,4.93
2017-11-07T05:50:14.535Z,4.94
2017-11-07T05:51:14.515Z,5.00
2017-11-07T05:52:14.489Z,4.96
2017-11-07T05:53:14.495Z,4.92
2017-11-07T05:54:14.449Z,4.94
2017-11-07T05:55:14.430Z,5.00
2017-11-07T05:56:14.400Z,4.96
2017-11-07T05:57:14.378Z,4.97
2017-11-07T05:58:14.360Z,4.94
2017-11-07T05:59:14.328Z,4.96
2017-11-07T06:00:14.332Z,4.97
2017-11-07T06:01:14.286Z,4.93
2017-11-07T06:02:14.262Z,4.94
2017-11-07T06:03:14.246Z,5.02
2017-11-07T06:04:14.218Z,4.94
2017-11-07T06:05:14.193Z,5.00
2017-11-07T06:06:14.184Z,5.05
2017-11-07T06:07:14.147Z,5.05
2017-11-07T06:08:14.142Z,5.05
2017-11-07T06:09:14.099Z,5.05
2017-11-07T06:10:14.082Z,5.02
2017-11-07T06:11:14.049Z,5.05
2017-11-07T06:12:14.026Z,5.05
2017-11-07T06:13:14.013Z,5.05
2017-11-07T06:14:13.989Z,5.14
2017-11-07T06:15:13.984Z,5.14
2017-11-07T06:16:13.936Z,5.05
2017-11-07T06:17:13.914Z,5.05
2017-11-07T06:18:13.888Z,5.04
2017-11-07T06:19:13.868Z,5.11
2017-11-07T06:20:13.834Z,5.08
2017-11-07T06:21:13.818Z,5.07
2017-11-07T06:22:13.793Z,5.08
2017-11-07T06:23:13.770Z,5.07
2017-11-07T06:24:13.770Z,5.10
2017-11-07T06:25:13.734Z,5.07
2017-11-07T06:26:13.698Z,5.07
2017-11-07T06:27:13.689Z,5.20
2017-11-07T06:28:13.673Z,5.17
2017-11-07T06:29:13.638Z,5.17
2017-11-07T06:30:13.616Z,5.17
2017-11-07T06:31:13.594Z,5.15
2017-11-07T06:32:13.571Z,5.12
2017-11-07T06:33:13.565Z,5.15
2017-11-07T06:34:13.515Z,5.15
2017-11-07T06:35:13.505Z,5.17
2017-11-07T06:36:13.470Z,5.15
2017-11-07T06:37:13.450Z,5.15
2017-11-07T06:38:13.441Z,5.11
2017-11-07T06:39:13.414Z,5.15
2017-11-07T06:40:13.394Z,5.15
2017-11-07T06:41:13.352Z,5.17
2017-11-07T06:42:13.332Z,5.18
2017-11-07T06:43:13.308Z,5.21
2017-11-07T06:44:13.290Z,5.17
2017-11-07T06:45:13.279Z,5.14
2017-11-07T06:46:13.246Z,5.14
2017-11-07T06:47:13.224Z,5.15
2017-11-07T06:48:13.196Z,5.12
2017-11-07T06:49:13.163Z,5.21
2017-11-07T06:50:13.149Z,5.23
2017-11-07T06:51:13.116Z,5.17
2017-11-07T06:52:13.102Z,5.25
2017-11-07T06:53:13.080Z,5.26
2017-11-07T06:54:13.074Z,5.25
2017-11-07T06:55:13.032Z,5.25
2017-11-07T06:56:13.005Z,5.25
2017-11-07T06:57:12.993Z,5.23
2017-11-07T06:58:12.958Z,5.28
2017-11-07T06:59:12.940Z,5.23
2017-11-07T07:00:12.912Z,5.32
2017-11-07T07:01:12.888Z,5.29
2017-11-07T07:02:12.868Z,5.35
2017-11-07T07:03:12.855Z,5.29
2017-11-07T07:04:12.828Z,5.33
2017-11-07T07:05:12.797Z,5.36
2017-11-07T07:06:12.780Z,5.35
2017-11-07T07:07:12.753Z,5.43
2017-11-07T07:08:12.734Z,5.43
2017-11-07T07:09:12.709Z,5.36
2017-11-07T07:10:12.704Z,5.33
2017-11-07T07:11:12.667Z,5.41
2017-11-07T07:12:12.637Z,5.48
2017-11-07T07:13:12.615Z,5.46
2017-11-07T07:14:12.597Z,5.47
2017-11-07T07:15:12.568Z,5.47
2017-11-07T07:16:12.541Z,5.51
2017-11-07T07:17:12.525Z,5.47
2017-11-07T07:18:12.508Z,5.44
2017-11-07T07:19:12.492Z,5.48
2017-11-07T07:20:12.489Z,5.41
2017-11-07T07:21:12.459Z,5.50
2017-11-07T07:22:12.410Z,5.46
2017-11-07T07:23:12.413Z,5.50
2017-11-07T07:24:12.356Z,5.48
2017-11-07T07:25:12.335Z,5.43
2017-11-07T07:26:12.319Z,5.48
2017-11-07T07:27:12.296Z,5.47
2017-11-07T07:28:12.279Z,5.51
2017-11-07T07:29:12.254Z,5.57
2017-11-07T07:30:12.223Z,5.53
2017-11-07T07:31:12.201Z,5.48
2017-11-07T07:32:12.197Z,5.61
2017-11-07T07:33:12.154Z,5.65
2017-11-07T07:34:12.131Z,5.66
2017-11-07T07:35:12.112Z,5.72
2017-11-07T07:36:12.086Z,5.71
2017-11-07T07:37:12.065Z,5.71
2017-11-07T07:38:12.039Z,5.66
2017-11-07T07:39:12.019Z,5.76
2017-11-07T07:40:12.007Z,5.73
2017-11-07T07:41:11.978Z,5.83
2017-11-07T07:42:11.950Z,5.80
2017-11-07T07:43:11.925Z,5.84
2017-11-07T07:44:11.908Z,5.80
2017-11-07T07:45:11.881Z,5.83
2017-11-07T07:46:11.853Z,5.86
2017-11-07T07:47:11.854Z,5.89
2017-11-07T07:48:11.810Z,5.87
2017-11-07T07:49:11.791Z,5.97
2017-11-07T07:50:11.781Z,6.02
2017-11-07T07:51:11.741Z,5.97
2017-11-07T07:52:11.721Z,6.04
2017-11-07T07:53:11.693Z,5.99
2017-11-07T07:54:11.680Z,6.04
2017-11-07T07:55:11.658Z,6.08
2017-11-07T07:56:11.626Z,6.12
2017-11-07T07:57:11.599Z,6.04
2017-11-07T07:58:11.586Z,6.17
2017-11-07T07:59:11.569Z,6.08
2017-11-07T08:00:11.533Z,6.09
2017-11-07T08:01:11.527Z,6.09
2017-11-07T08:02:11.496Z,6.26
2017-11-07T08:03:11.470Z,6.28
2017-11-07T08:04:11.449Z,6.28
2017-11-07T08:05:11.427Z,6.38
2017-11-07T08:06:11.398Z,6.36
2017-11-07T08:07:11.382Z,6.45
2017-11-07T08:08:11.362Z,6.36
2017-11-07T08:09:11.331Z,6.42
2017-11-07T08:10:11.321Z,6.45
2017-11-07T08:11:11.295Z,6.44
2017-11-07T08:12:11.283Z,6.48
2017-11-07T08:13:11.246Z,6.54
2017-11-07T08:14:11.229Z,6.56
2017-11-07T08:15:11.205Z,6.62
2017-11-07T08:16:11.171Z,6.66
2017-11-07T08:17:11.160Z,6.69
2017-11-07T08:18:11.133Z,6.72
2017-11-07T08:19:11.194Z,6.70
2017-11-07T08:20:11.093Z,6.74
2017-11-07T08:21:11.076Z,6.75
2017-11-07T08:22:11.047Z,6.81
2017-11-07T08:23:11.028Z,6.79
2017-11-07T08:24:10.997Z,6.88
2017-11-07T08:25:10.978Z,6.89
2017-11-07T08:26:10.949Z,6.92
2017-11-07T08:27:10.937Z,7.00
2017-11-07T08:28:10.913Z,6.92
2017-11-07T08:29:10.883Z,7.00
2017-11-07T08:30:10.865Z,7.05
2017-11-07T08:31:10.863Z,7.07
2017-11-07T08:32:10.819Z,7.07
2017-11-07T08:33:10.800Z,7.06
2017-11-07T08:34:10.783Z,7.14
2017-11-07T08:35:10.756Z,7.14
2017-11-07T08:36:10.740Z,7.13
2017-11-07T08:37:10.712Z,7.11
2017-11-07T08:38:10.686Z,7.25
2017-11-07T08:39:10.662Z,7.23
2017-11-07T08:40:10.638Z,7.23
2017-11-07T08:41:10.624Z,7.24
2017-11-07T08:42:10.592Z,7.40
2017-11-07T08:43:10.590Z,7.45
2017-11-07T08:44:10.561Z,7.43
2017-11-07T08:45:10.529Z,7.51
2017-11-07T08:46:10.506Z,7.56
2017-11-07T08:47:10.495Z,7.58
2017-11-07T08:48:10.475Z,7.57
2017-11-07T08:49:10.447Z,7.70
2017-11-07T08:50:10.419Z,7.76
2017-11-07T08:51:10.401Z,7.83
2017-11-07T08:52:10.375Z,7.73
2017-11-07T08:53:10.363Z,7.77
2017-11-07T08:54:10.376Z,7.85
2017-11-07T08:55:10.314Z,7.87
2017-11-07T08:56:10.299Z,7.85
2017-11-07T08:57:10.262Z,7.90
2017-11-07T08:58:10.247Z,7.93
2017-11-07T08:59:10.232Z,8.09
2017-11-07T09:00:10.192Z,8.10
2017-11-07T09:01:10.173Z,8.12
2017-11-07T09:02:10.161Z,8.05
2017-11-07T09:03:10.147Z,8.16
2017-11-07T09:04:10.106Z,8.15
2017-11-07T09:05:10.087Z,8.26
2017-11-07T09:06:10.069Z,8.37
2017-11-07T09:07:10.053Z,8.41
2017-11-07T09:08:10.029Z,8.58
2017-11-07T09:09:10.000Z,8.63
2017-11-07T09:10:09.980Z,8.70
2017-11-07T09:11:09.974Z,8.81
2017-11-07T09:12:09.933Z,8.99
2017-11-07T09:13:09.909Z,9.11
2017-11-07T09:14:09.893Z,9.10
2017-11-07T09:15:09.874Z,9.29
2017-11-07T09:16:09.851Z,9.32
2017-11-07T09:17:09.834Z,9.28
2017-11-07T09:18:09.810Z,9.32
2017-11-07T09:19:09.783Z,9.37
2017-11-07T09:20:09.794Z,9.40
2017-11-07T09:21:09.749Z,9.47
2017-11-07T09:22:09.728Z,9.55
2017-11-07T09:23:09.724Z,9.61
2017-11-07T09:24:09.677Z,9.64
2017-11-07T09:25:09.662Z,9.62
2017-11-07T09:26:09.649Z,9.69
2017-11-07T09:27:09.626Z,9.76
2017-11-07T09:28:09.596Z,10.01
2017-11-07T09:29:09.576Z,10.10
2017-11-07T09:30:09.551Z,10.09
2017-11-07T09:31:09.545Z,10.25
2017-11-07T09:32:09.559Z,10.38
2017-11-07T09:33:09.494Z,10.54
2017-11-07T09:34:09.470Z,10.79
2017-11-07T09:35:09.452Z,10.92
2017-11-07T09:36:09.425Z,11.33
2017-11-07T09:37:09.406Z,11.80
2017-11-07T09:38:09.386Z,12.10
2017-11-07T09:39:09.385Z,12.42
2017-11-07T09:40:09.348Z,13.16
2017-11-07T09:41:09.339Z,13.90
2017-11-07T09:42:09.324Z,14.79
2017-11-07T09:43:09.288Z,15.76
2017-11-07T09:44:09.264Z,16.28
2017-11-07T09:45:09.242Z,16.64
2017-11-07T09:46:09.227Z,16.78
2017-11-07T09:47:09.264Z,16.69
2017-11-07T09:48:09.196Z,16.50
2017-11-07T09:49:09.175Z,16.64
2017-11-07T09:50:09.157Z,16.84
2017-11-07T09:51:09.130Z,16.76
2017-11-07T09:52:09.115Z,17.29
2017-11-07T09:53:09.102Z,17.59
2017-11-07T09:54:09.078Z,17.98
2017-11-07T09:55:09.065Z,17.94
2017-11-07T09:56:09.061Z,17.92
2017-11-07T09:57:09.029Z,17.60
2017-11-07T09:58:09.034Z,17.27
2017-11-07T09:59:08.991Z,17.04
2017-11-07T10:00:08.980Z,16.42
2017-11-07T10:01:08.970Z,16.23
2017-11-07T10:02:08.958Z,15.75
2017-11-07T10:03:08.940Z,15.47
2017-11-07T10:04:08.913Z,14.96
2017-11-07T10:05:08.907Z,14.62
2017-11-07T10:06:08.882Z,14.35
2017-11-07T10:07:08.871Z,14.22
2017-11-07T10:08:08.840Z,14.11
2017-11-07T10:09:08.844Z,14.03
2017-11-07T10:10:08.815Z,14.00
2017-11-07T10:11:08.801Z,13.72
2017-11-07T10:12:08.779Z,13.50
2017-11-07T10:13:08.762Z,13.22
2017-11-07T10:14:08.740Z,13.08
2017-11-07T10:15:08.763Z,13.15
2017-11-07T10:16:08.709Z,13.05
2017-11-07T10:17:08.678Z,13.12
2017-11-07T10:18:08.686Z,13.15
2017-11-07T10:19:08.645Z,13.05
2017-11-07T10:20:08.640Z,12.86
2017-11-07T10:21:08.610Z,12.80
2017-11-07T10:22:08.611Z,12.70
2017-11-07T10:23:08.598Z,12.47
2017-11-07T10:24:08.556Z,12.50
2017-11-07T10:25:08.536Z,12.46
2017-11-07T10:26:08.521Z,12.22
2017-11-07T10:27:08.538Z,12.09
2017-11-07T10:28:08.483Z,11.95
2017-11-07T10:29:08.458Z,11.78
2017-11-07T10:30:08.452Z,11.57
2017-11-07T10:31:08.421Z,11.52
2017-11-07T10:32:08.403Z,11.30
2017-11-07T10:33:08.384Z,11.18
2017-11-07T10:34:08.377Z,11.10
2017-11-07T10:35:08.359Z,10.99
2017-11-07T10:36:08.330Z,10.78
2017-11-07T10:37:08.317Z,10.56
2017-11-07T10:38:08.305Z,10.59
2017-11-07T10:39:08.291Z,10.34
2017-11-07T10:40:08.257Z,10.31
2017-11-07T10:41:08.255Z,10.30
2017-11-07T10:42:08.235Z,10.34
2017-11-07T10:43:08.213Z,10.31
2017-11-07T10:44:08.173Z,10.23
2017-11-07T10:45:08.159Z,10.17
2017-11-07T10:46:08.140Z,10.20
2017-11-07T10:47:08.118Z,10.20
2017-11-07T10:48:08.101Z,10.31
2017-11-07T10:49:08.075Z,10.34
2017-11-07T10:50:08.068Z,10.51
2017-11-07T10:51:08.038Z,10.84
2017-11-07T10:52:08.009Z,11.22
2017-11-07T10:53:07.986Z,11.40
2017-11-07T10:54:07.980Z,11.55
2017-11-07T10:55:07.965Z,11.63
2017-11-07T10:56:07.940Z,11.57
2017-11-07T10:57:07.924Z,11.63
2017-11-07T10:58:07.906Z,11.66
2017-11-07T10:59:07.878Z,11.60
2017-11-07T11:00:07.857Z,11.78
2017-11-07T11:01:07.832Z,11.63
2017-11-07T11:02:07.828Z,11.50
2017-11-07T11:03:07.786Z,11.25
2017-11-07T11:04:07.774Z,11.05
2017-11-07T11:05:07.758Z,10.74
2017-11-07T11:06:07.736Z,10.48
2017-11-07T11:07:07.717Z,10.28
2017-11-07T11:08:07.697Z,10.13
2017-11-07T11:09:07.686Z,9.92
2017-11-07T11:10:07.667Z,9.80
2017-11-07T11:11:07.628Z,9.69
2017-11-07T11:12:08.309Z,9.62
2017-11-07T11:13:07.622Z,9.55
2017-11-07T11:14:07.579Z,9.56
2017-11-07T11:15:07.553Z,9.64
2017-11-07T11:16:07.526Z,9.62
2017-11-07T11:17:07.569Z,9.74
2017-11-07T11:18:07.493Z,9.77
2017-11-07T11:19:07.488Z,9.74
2017-11-07T11:20:07.446Z,9.84
2017-11-07T11:21:07.441Z,9.84
2017-11-07T11:22:07.435Z,9.92
2017-11-07T11:23:07.400Z,9.89
2017-11-07T11:24:07.386Z,9.73
2017-11-07T11:25:07.341Z,9.72
2017-11-07T11:26:07.324Z,9.76
2017-11-07T11:27:07.321Z,9.84
2017-11-07T11:28:07.292Z,9.92
2017-11-07T11:29:07.263Z,9.84
2017-11-07T11:30:07.276Z,9.79
2017-11-07T11:31:07.234Z,9.79
2017-11-07T11:32:07.262Z,9.83
2017-11-07T11:33:07.196Z,9.83
2017-11-07T11:34:07.185Z,9.77
2017-11-07T11:35:07.151Z,9.77
2017-11-07T11:36:07.131Z,9.69
2017-11-07T11:37:07.099Z,9.62
2017-11-07T11:38:07.092Z,9.61
2017-11-07T11:39:07.066Z,9.58
2017-11-07T11:40:07.034Z,9.64
2017-11-07T11:41:07.016Z,9.62
2017-11-07T11:42:07.005Z,9.54
2017-11-07T11:43:06.990Z,9.56
2017-11-07T11:44:06.976Z,9.51
2017-11-07T11:45:06.931Z,9.62
2017-11-07T11:46:06.925Z,9.62
2017-11-07T11:47:06.914Z,9.58
2017-11-07T11:48:06.865Z,9.66
2017-11-07T11:49:06.851Z,9.64
2017-11-07T11:50:06.842Z,9.64
2017-11-07T11:51:06.808Z,9.62
2017-11-07T11:52:06.781Z,9.62
2017-11-07T11:53:06.765Z,9.61
2017-11-07T11:54:06.761Z,9.61
2017-11-07T11:55:06.742Z,9.58
2017-11-07T11:56:06.705Z,9.54
2017-11-07T11:57:06.721Z,9.48
2017-11-07T11:58:06.678Z,9.50
2017-11-07T11:59:07.323Z,9.43
2017-11-07T12:00:06.608Z,9.31
2017-11-07T12:01:06.605Z,9.13
2017-11-07T12:02:06.629Z,9.18
2017-11-07T12:03:06.555Z,9.06
2017-11-07T12:04:06.541Z,9.04
2017-11-07T12:05:06.531Z,8.99
2017-11-07T12:06:06.491Z,8.94
2017-11-07T12:07:06.476Z,8.84
2017-11-07T12:08:06.505Z,8.88
2017-11-07T12:09:06.428Z,8.79
2017-11-07T12:10:06.420Z,8.74
2017-11-07T12:11:06.388Z,8.69
2017-11-07T12:12:06.361Z,8.71
2017-11-07T12:13:06.335Z,8.82
2017-11-07T12:14:06.400Z,8.81
2017-11-07T12:15:06.297Z,8.88
2017-11-07T12:16:06.277Z,8.88
2017-11-07T12:17:06.258Z,8.85
2017-11-07T12:18:06.240Z,8.82
2017-11-07T12:19:06.224Z,8.85
2017-11-07T12:20:06.185Z,8.88
2017-11-07T12:21:06.164Z,8.84
2017-11-07T12:22:06.149Z,8.79
2017-11-07T12:23:06.120Z,8.73
2017-11-07T12:24:06.104Z,8.74
2017-11-07T12:25:06.082Z,8.70
2017-11-07T12:26:06.067Z,8.66
2017-11-07T12:27:06.059Z,8.69
2017-11-07T12:28:06.024Z,8.66
2017-11-07T12:29:06.009Z,8.70
2017-11-07T12:30:06.003Z,8.69
2017-11-07T12:31:05.962Z,8.76
2017-11-07T12:32:05.937Z,8.69
2017-11-07T12:33:05.913Z,8.55
2017-11-07T12:34:05.896Z,8.58
2017-11-07T12:35:05.864Z,8.52
2017-11-07T12:36:05.853Z,8.56
2017-11-07T12:37:05.877Z,8.53
2017-11-07T12:38:05.813Z,8.55
2017-11-07T12:39:05.786Z,8.46
2017-11-07T12:40:05.764Z,8.48
2017-11-07T12:41:05.744Z,8.48
2017-11-07T12:42:05.714Z,8.45
2017-11-07T12:43:05.687Z,8.41
2017-11-07T12:44:05.676Z,8.45
2017-11-07T12:45:05.656Z,8.42
2017-11-07T12:46:05.628Z,8.37
2017-11-07T12:47:05.618Z,8.36
2017-11-07T12:48:05.598Z,8.36
2017-11-07T12:49:05.573Z,8.34
2017-11-07T12:50:05.576Z,8.36
2017-11-07T12:51:05.521Z,8.36
2017-11-07T12:52:05.508Z,8.31
2017-11-07T12:53:05.494Z,8.26
2017-11-07T12:54:05.475Z,8.24
2017-11-07T12:55:05.484Z,8.23
2017-11-07T12:56:05.446Z,8.23
2017-11-07T12:57:05.395Z,8.24
2017-11-07T12:58:05.378Z,8.15
2017-11-07T12:59:05.401Z,8.19
2017-11-07T13:00:05.359Z,8.20
2017-11-07T13:01:05.298Z,8.13
2017-11-07T13:02:05.286Z,8.19
2017-11-07T13:03:05.264Z,8.20
2017-11-07T13:04:05.232Z,8.18
2017-11-07T13:05:05.223Z,8.26
2017-11-07T13:06:05.196Z,8.28
2017-11-07T13:07:05.184Z,8.34
2017-11-07T13:08:05.147Z,8.31
2017-11-07T13:09:05.137Z,8.34
2017-11-07T13:10:05.108Z,8.33
2017-11-07T13:11:05.088Z,8.33
2017-11-07T13:12:05.062Z,8.28
2017-11-07T13:13:05.058Z,8.30
2017-11-07T13:14:05.065Z,8.27
2017-11-07T13:15:05.002Z,8.33